Time;durP1;ratioP1;P1;durP2;ratioP2;P2;SDS_P1;SDS_P2;PMS_P1;PMS_P2;Temp;Humidity;BMP_temperature;BMP_pressure;BME280_temperature;BME280_humidity;BME280_pressure;Samples;Min_cycle;Max_cycle;Signal;HPM_P1;HPM_P2
2023/10/07 00:01:52;;;;;;;0.50;0.50;;;;;;;12.60;100.00;101012.13;5090134;28;20164;-60
2023/10/07 00:04:18;;;;;;;0.50;0.50;;;;;;;12.56;100.00;101010.47;5087974;28;20032;-61
2023/10/07 00:06:45;;;;;;;0.50;0.50;;;;;;;12.51;100.00;101008.81;5070569;28;20040;-59
2023/10/07 00:09:12;;;;;;;0.40;0.40;;;;;;;12.32;100.00;100995.03;5067483;28;20032;-59
2023/10/07 00:11:38;;;;;;;0.50;0.50;;;;;;;12.24;100.00;100997.00;5082006;28;20089;-59
2023/10/07 00:14:08;;;;;;;0.40;0.40;;;;;;;12.23;100.00;100989.94;5084764;28;20040;-59
2023/10/07 00:16:36;;;;;;;0.40;0.40;;;;;;;12.19;100.00;101004.22;5068307;28;20040;-59
2023/10/07 00:19:01;;;;;;;0.47;0.47;;;;;;;12.03;100.00;100992.19;5067002;28;20041;-59
2023/10/07 00:21:27;;;;;;;0.40;0.40;;;;;;;12.04;100.00;100993.94;5067693;28;20511;-59
2023/10/07 00:23:53;;;;;;;0.40;0.40;;;;;;;12.01;100.00;100999.31;5069109;28;20077;-60
2023/10/07 00:26:19;;;;;;;0.40;0.40;;;;;;;11.98;100.00;101002.06;5066848;28;20036;-59
2023/10/07 00:28:54;;;;;;;0.50;0.50;;;;;;;11.74;100.00;100967.97;5068826;28;20029;-59
2023/10/07 00:31:23;;;;;;;0.40;0.40;;;;;;;11.84;100.00;100994.38;5066263;28;20071;-60
2023/10/07 00:38:59;;;;;;;0.55;0.55;;;;;;;11.66;100.00;100986.78;5067860;28;20349;-58
2023/10/07 00:41:39;;;;;;;0.50;0.50;;;;;;;11.60;100.00;100991.34;5077122;28;20062;-58
2023/10/07 00:44:17;;;;;;;0.47;0.47;;;;;;;11.58;100.00;100980.72;5067478;28;20119;-59
2023/10/07 00:46:42;;;;;;;0.50;0.50;;;;;;;11.60;100.00;100980.66;5069599;28;20028;-58
2023/10/07 00:49:16;;;;;;;0.50;0.50;;;;;;;11.58;100.00;100978.03;5076610;28;20040;-58
2023/10/07 00:51:46;;;;;;;0.50;0.50;;;;;;;11.58;100.00;100977.19;5087482;28;20027;-59
2023/10/07 00:54:19;;;;;;;0.60;0.60;;;;;;;11.56;100.00;100973.66;5054773;28;20020;-58
2023/10/07 00:56:50;;;;;;;;;;;;;;;11.53;100.00;100965.75;5087779;28;20126;-58
2023/10/07 00:59:18;;;;;;;0.50;0.50;;;;;;;11.48;100.00;100959.63;5087424;28;19922;-60
2023/10/07 01:01:47;;;;;;;0.43;0.43;;;;;;;11.45;100.00;100957.03;5076221;28;20089;-59
2023/10/07 01:04:15;;;;;;;0.50;0.50;;;;;;;11.43;100.00;100958.84;5066031;28;20020;-59
2023/10/07 01:06:45;;;;;;;0.40;0.40;;;;;;;11.32;100.00;100940.44;5077039;28;20047;-59
2023/10/07 01:09:14;;;;;;;0.50;0.50;;;;;;;11.42;100.00;100951.75;5085991;28;20024;-58
2023/10/07 01:11:40;;;;;;;0.50;0.50;;;;;;;11.41;100.00;100950.91;5082711;28;20055;-58
2023/10/07 01:14:10;;;;;;;0.50;0.50;;;;;;;11.36;100.00;100949.22;5085326;28;20123;-60
2023/10/07 01:16:41;;;;;;;0.50;0.50;;;;;;;11.39;100.00;100946.50;5085450;28;20036;-59
2023/10/07 01:21:54;;;;;;;0.50;0.50;;;;;;;11.36;100.00;100954.56;5084134;28;20036;-60
2023/10/07 01:24:25;;;;;;;0.50;0.50;;;;;;;11.29;100.00;100945.81;5088565;28;20038;-60
2023/10/07 01:26:51;;;;;;;0.60;0.60;;;;;;;11.14;100.00;100947.91;5076683;28;20051;-58
2023/10/07 01:29:16;;;;;;;0.50;0.50;;;;;;;11.05;100.00;100942.78;5068105;28;20024;-59
2023/10/07 01:31:59;;;;;;;0.50;0.50;;;;;;;10.99;100.00;100942.91;5071764;28;20082;-59
2023/10/07 01:34:30;;;;;;;0.50;0.50;;;;;;;10.95;100.00;100941.19;5070334;28;20129;-59
2023/10/07 01:37:00;;;;;;;0.60;0.60;;;;;;;10.93;100.00;100937.69;5070359;28;20028;-59
2023/10/07 01:39:28;;;;;;;0.52;0.52;;;;;;;10.91;100.00;100947.47;5084907;28;20031;-59
2023/10/07 01:41:53;;;;;;;0.50;0.50;;;;;;;10.95;100.00;100951.84;5089777;28;20452;-58
2023/10/07 01:44:24;;;;;;;0.50;0.50;;;;;;;10.93;100.00;100949.22;5082891;28;20082;-59
2023/10/07 01:46:55;;;;;;;0.50;0.50;;;;;;;10.88;100.00;100950.19;5088363;28;20114;-60
2023/10/07 01:49:22;;;;;;;0.60;0.60;;;;;;;10.89;100.00;100944.00;5088309;28;20024;-59
2023/10/07 01:51:51;;;;;;;0.60;0.60;;;;;;;10.86;100.00;100954.66;5089474;28;20030;-60
2023/10/07 01:54:19;;;;;;;0.50;0.50;;;;;;;10.84;100.00;100961.81;5090464;28;20037;-58
2023/10/07 01:56:47;;;;;;;0.60;0.60;;;;;;;10.78;100.00;100953.94;5078997;28;20383;-58
2023/10/07 02:01:42;;;;;;;0.60;0.60;;;;;;;10.77;100.00;100962.84;5072520;28;20029;-59
2023/10/07 02:04:17;;;;;;;0.60;0.60;;;;;;;10.75;100.00;100959.31;5069969;28;20032;-60
2023/10/07 02:06:51;;;;;;;0.60;0.60;;;;;;;10.73;100.00;100969.09;5069875;28;20020;-58
2023/10/07 02:09:27;;;;;;;0.60;0.60;;;;;;;10.71;100.00;100977.13;5072037;28;20219;-59
2023/10/07 02:12:03;;;;;;;0.50;0.50;;;;;;;10.66;100.00;100976.31;5085676;28;20036;-59
2023/10/07 02:14:29;;;;;;;0.50;0.50;;;;;;;10.60;100.00;100982.66;5080120;28;20052;-59
2023/10/07 02:16:56;;;;;;;0.60;0.60;;;;;;;10.57;100.00;100981.81;5068473;28;20668;-58
2023/10/07 02:19:29;;;;;;;0.60;0.60;;;;;;;10.57;100.00;100980.06;5069166;28;20033;-58
2023/10/07 02:22:03;;;;;;;0.50;0.50;;;;;;;10.59;100.00;100975.56;5087570;28;20042;-59
2023/10/07 02:24:34;;;;;;;0.50;0.50;;;;;;;10.65;100.00;100985.22;5088537;28;20038;-60
2023/10/07 02:27:17;;;;;;;0.50;0.50;;;;;;;10.67;100.00;100987.84;5089234;28;20028;-60
2023/10/07 02:29:44;;;;;;;0.50;0.50;;;;;;;10.67;100.00;100985.19;5086074;28;20035;-58
2023/10/07 02:32:14;;;;;;;0.60;0.60;;;;;;;10.65;100.00;100998.53;5089463;28;20285;-60
2023/10/07 02:34:54;;;;;;;0.60;0.60;;;;;;;10.57;100.00;100998.66;5086773;28;20020;-58
2023/10/07 02:37:21;;;;;;;0.50;0.50;;;;;;;10.52;100.00;101008.50;5069021;28;20111;-58
2023/10/07 02:39:48;;;;;;;0.50;0.50;;;;;;;10.44;100.00;100997.09;5069425;28;20024;-58
2023/10/07 02:42:51;;;;;;;0.60;0.60;;;;;;;10.48;100.00;100998.81;5088572;28;20024;-58
2023/10/07 02:47:37;;;;;;;0.50;0.50;;;;;;;10.50;100.00;100994.34;5068164;28;20040;-59
2023/10/07 02:50:07;;;;;;;0.60;0.60;;;;;;;10.57;100.00;101001.31;5070587;28;20109;-58
2023/10/07 02:52:36;;;;;;;0.60;0.60;;;;;;;10.66;100.00;101002.06;5068020;28;20441;-59
2023/10/07 02:55:45;;;;;;;0.60;0.60;;;;;;;10.68;100.00;100995.81;5075680;28;20092;-58
2023/10/07 02:57:55;;;;;;;0.60;0.60;;;;;;;10.80;100.00;100987.63;5078859;28;20039;-59
2023/10/07 03:00:49;;;;;;;0.60;0.60;;;;;;;10.86;100.00;100990.16;5075453;28;20024;-58
2023/10/07 03:05:58;;;;;;;0.52;0.52;;;;;;;11.01;100.00;100999.63;5068287;28;20489;-60
2023/10/07 03:08:39;;;;;;;0.50;0.50;;;;;;;11.00;100.00;101001.44;5067444;28;20031;-59
2023/10/07 03:11:09;;;;;;;0.60;0.60;;;;;;;11.01;100.00;101010.28;5079644;28;20043;-58
2023/10/07 03:13:38;;;;;;;0.50;0.50;;;;;;;10.93;100.00;101013.09;5085548;28;20040;-59
2023/10/07 03:16:59;;;;;;;0.60;0.60;;;;;;;10.85;100.00;101028.34;5082401;28;20458;-60
2023/10/07 03:24:11;;;;;;;0.55;0.55;;;;;;;10.52;100.00;101037.78;5070651;28;20105;-58
2023/10/07 03:26:39;;;;;;;0.60;0.60;;;;;;;10.53;100.00;101028.88;5068268;28;20035;-58
2023/10/07 03:29:05;;;;;;;0.52;0.52;;;;;;;10.55;100.00;101032.38;5068285;28;20534;-59
2023/10/07 03:34:12;;;;;;;0.60;0.60;;;;;;;10.55;100.00;101031.50;5101197;28;20086;-64
2023/10/07 03:36:41;;;;;;;0.50;0.50;;;;;;;10.50;100.00;101034.25;5086095;28;20019;-64
2023/10/07 03:41:41;;;;;;;0.57;0.57;;;;;;;10.49;100.00;101015.66;5100774;28;20039;-64
2023/10/07 03:44:07;;;;;;;0.60;0.60;;;;;;;10.54;100.00;101035.94;5099012;28;20023;-64
2023/10/07 03:46:34;;;;;;;0.60;0.60;;;;;;;10.55;100.00;101036.81;5096887;28;20054;-63
2023/10/07 03:49:01;;;;;;;0.60;0.60;;;;;;;10.57;100.00;101041.22;5103661;28;20035;-64
2023/10/07 03:51:30;;;;;;;0.60;0.60;;;;;;;10.50;100.00;101038.69;5095669;28;20023;-62
2023/10/07 03:54:09;;;;;;;0.50;0.50;;;;;;;10.53;100.00;101030.63;5104071;28;20100;-63
2023/10/07 03:56:39;;;;;;;0.60;0.60;;;;;;;10.46;100.00;101021.03;5090880;28;20051;-66
2023/10/07 03:59:05;;;;;;;0.60;0.60;;;;;;;10.32;100.00;100997.31;5101460;28;20036;-63
2023/10/07 04:01:39;;;;;;;0.60;0.60;;;;;;;10.33;100.00;101004.38;5098843;28;20028;-64
2023/10/07 04:04:11;;;;;;;0.60;0.60;;;;;;;10.30;100.00;100999.09;5082688;28;20120;-63
2023/10/07 04:06:38;;;;;;;0.70;0.70;;;;;;;10.17;100.00;101010.84;5080183;28;20047;-64
2023/10/07 04:09:06;;;;;;;0.60;0.60;;;;;;;10.11;100.00;101010.94;5084281;28;20027;-63
2023/10/07 04:11:36;;;;;;;0.70;0.70;;;;;;;9.97;100.00;100988.94;5093194;28;20052;-63
2023/10/07 04:14:45;;;;;;;0.68;0.68;;;;;;;9.99;100.00;100996.91;5100511;28;20028;-64
2023/10/07 04:16:52;;;;;;;0.60;0.60;;;;;;;9.97;100.00;100999.56;5086282;28;20040;-65
2023/10/07 04:21:50;;;;;;;0.60;0.60;;;;;;;9.96;100.00;100997.84;5081894;28;20090;-63
2023/10/07 04:24:18;;;;;;;0.70;0.70;;;;;;;9.96;100.00;100999.59;5082625;28;20025;-64
2023/10/07 04:26:54;;;;;;;0.60;0.60;;;;;;;10.00;100.00;100988.91;5084904;28;20033;-65
2023/10/07 04:29:24;;;;;;;0.60;0.60;;;;;;;10.00;100.00;100988.03;5092593;28;20024;-63
2023/10/07 04:31:54;;;;;;;0.60;0.60;;;;;;;10.00;100.00;100993.34;5099850;28;20795;-62
2023/10/07 04:34:23;;;;;;;0.60;0.60;;;;;;;10.03;100.00;101007.44;5100826;28;20030;-63
2023/10/07 04:39:37;;;;;;;0.60;0.60;;;;;;;10.09;100.00;100999.44;5093050;28;20036;-65
2023/10/07 04:42:07;;;;;;;0.60;0.60;;;;;;;10.14;100.00;101008.22;5087507;28;20097;-60
2023/10/07 04:47:29;;;;;;;0.60;0.60;;;;;;;10.20;100.00;101018.75;5069495;28;20028;-59
2023/10/07 04:49:55;;;;;;;0.60;0.60;;;;;;;10.25;100.00;101016.03;5067024;28;20052;-60
2023/10/07 04:52:24;;;;;;;0.60;0.60;;;;;;;10.26;100.00;101008.03;5067008;28;20033;-59
2023/10/07 04:54:52;;;;;;;0.60;0.60;;;;;;;10.22;100.00;101006.31;5073730;28;20039;-60
2023/10/07 04:57:39;;;;;;;0.60;0.60;;;;;;;10.20;100.00;101021.41;5089583;28;20022;-59
2023/10/07 05:00:08;;;;;;;0.60;0.60;;;;;;;10.20;100.00;101037.38;5084392;28;20051;-60
2023/10/07 05:02:38;;;;;;;0.60;0.60;;;;;;;10.14;100.00;101040.13;5069865;28;20072;-60
2023/10/07 05:05:13;;;;;;;0.60;0.60;;;;;;;10.09;100.00;101031.34;5074370;28;20724;-59
2023/10/07 05:07:39;;;;;;;0.60;0.60;;;;;;;10.09;100.00;101044.63;5088764;28;20734;-59
2023/10/07 05:10:07;;;;;;;0.60;0.60;;;;;;;10.04;100.00;101058.84;5086514;28;20043;-60
2023/10/07 05:12:33;;;;;;;0.70;0.70;;;;;;;9.99;100.00;101050.94;5089706;28;20031;-58
2023/10/07 05:15:00;;;;;;;0.70;0.70;;;;;;;9.93;100.00;101050.16;5090918;28;20031;-59
2023/10/07 05:17:28;;;;;;;0.60;0.60;;;;;;;9.80;100.00;101053.88;5085262;28;20039;-59
2023/10/07 05:19:56;;;;;;;0.60;0.60;;;;;;;9.76;100.00;101041.50;5091202;28;20442;-60
2023/10/07 05:22:23;;;;;;;0.63;0.63;;;;;;;9.79;100.00;101052.97;5090107;28;20024;-59
2023/10/07 05:24:55;;;;;;;0.60;0.60;;;;;;;9.78;100.00;101051.22;5088730;28;20020;-58
2023/10/07 05:27:21;;;;;;;0.70;0.70;;;;;;;9.75;100.00;101059.22;5085201;28;20079;-59
2023/10/07 05:29:46;;;;;;;0.60;0.60;;;;;;;9.73;100.00;101047.75;5090874;28;20107;-59
2023/10/07 05:32:12;;;;;;;0.70;0.70;;;;;;;9.71;100.00;101054.84;5075260;28;20064;-59
2023/10/07 05:34:38;;;;;;;0.70;0.70;;;;;;;9.72;100.00;101067.22;5070461;28;20501;-59
2023/10/07 05:37:10;;;;;;;0.60;0.60;;;;;;;9.75;100.00;101061.88;5072528;28;20037;-60
2023/10/07 05:39:37;;;;;;;0.50;0.50;;;;;;;9.75;100.00;101055.72;5070212;28;20051;-59
2023/10/07 05:42:05;;;;;;;0.63;0.63;;;;;;;9.79;100.00;101054.75;5081602;28;20029;-59
2023/10/07 05:44:31;;;;;;;0.60;0.60;;;;;;;9.84;100.00;101047.59;5076080;28;20127;-59
2023/10/07 05:46:59;;;;;;;0.60;0.60;;;;;;;9.89;100.00;101040.44;5090479;28;20059;-59
2023/10/07 05:49:24;;;;;;;0.70;0.70;;;;;;;9.96;100.00;101040.34;5073490;28;20364;-59
2023/10/07 05:51:50;;;;;;;0.60;0.60;;;;;;;10.02;100.00;101034.94;5069581;28;20033;-60
2023/10/07 05:54:18;;;;;;;0.70;0.70;;;;;;;10.09;100.00;101034.00;5055457;28;20029;-58
2023/10/07 05:56:47;;;;;;;0.60;0.60;;;;;;;10.12;100.00;101025.97;5088556;28;20479;-59
2023/10/07 05:59:14;;;;;;;0.60;0.60;;;;;;;10.21;100.00;101030.28;5074532;28;20032;-59
2023/10/07 06:01:39;;;;;;;0.60;0.60;;;;;;;10.21;100.00;101024.97;5068858;28;20112;-58
2023/10/07 06:04:07;;;;;;;0.60;0.60;;;;;;;10.25;100.00;101035.53;5068857;28;20024;-59
2023/10/07 06:06:33;;;;;;;0.60;0.60;;;;;;;10.29;100.00;101039.91;5068555;28;20821;-59
2023/10/07 06:09:00;;;;;;;0.60;0.60;;;;;;;10.34;100.00;101040.72;5070838;28;20063;-60
2023/10/07 06:11:34;;;;;;;0.60;0.60;;;;;;;10.37;100.00;101053.97;5082485;28;20119;-59
2023/10/07 06:14:01;;;;;;;0.57;0.57;;;;;;;10.43;100.00;101042.31;5076494;28;20072;-60
2023/10/07 06:16:26;;;;;;;0.60;0.60;;;;;;;10.54;100.00;101049.22;5069771;28;20066;-58
2023/10/07 06:18:52;;;;;;;0.60;0.60;;;;;;;10.55;100.00;101058.09;5068731;28;20068;-58
2023/10/07 06:21:27;;;;;;;0.60;0.60;;;;;;;10.52;100.00;101059.03;5068832;28;20024;-58
2023/10/07 06:23:53;;;;;;;0.57;0.57;;;;;;;10.54;100.00;101051.91;5085131;28;20081;-60
2023/10/07 06:26:19;;;;;;;0.60;0.60;;;;;;;10.84;100.00;101062.97;5088192;28;20023;-60
2023/10/07 06:28:48;;;;;;;0.60;0.60;;;;;;;12.07;100.00;101057.88;5087657;28;20590;-59
2023/10/07 06:31:17;;;;;;;0.50;0.50;;;;;;;13.64;100.00;101064.56;5080632;28;20467;-58
2023/10/07 06:34:12;;;;;;;0.40;0.40;;;;;;;14.81;94.71;101049.34;5068128;28;20024;-59
2023/10/07 06:36:40;;;;;;;0.40;0.40;;;;;;;15.78;86.06;101048.50;5070561;28;20037;-60
2023/10/07 06:39:07;;;;;;;0.50;0.50;;;;;;;16.08;77.81;101069.78;5068007;28;20744;-58
2023/10/07 06:41:34;;;;;;;0.40;0.40;;;;;;;15.61;74.42;101082.25;5082523;28;20024;-58
2023/10/07 06:44:03;;;;;;;0.40;0.40;;;;;;;14.75;75.17;101077.19;5075274;28;20028;-59
2023/10/07 06:46:40;;;;;;;0.47;0.47;;;;;;;14.28;80.93;101093.91;5068170;28;20036;-59
2023/10/07 06:49:17;;;;;;;0.50;0.50;;;;;;;15.49;80.69;101088.06;5070689;28;20094;-59
2023/10/07 06:51:56;;;;;;;0.40;0.40;;;;;;;16.98;73.74;101084.94;5074568;28;20031;-59
2023/10/07 06:54:34;;;;;;;0.40;0.40;;;;;;;17.56;68.21;101081.50;5088120;28;20046;-60
2023/10/07 06:57:01;;;;;;;0.30;0.30;;;;;;;17.34;66.13;101080.69;5088262;28;20765;-59
2023/10/07 06:59:30;;;;;;;0.30;0.30;;;;;;;17.68;66.46;101082.78;5072945;28;20024;-59
2023/10/07 07:01:56;;;;;;;0.30;0.30;;;;;;;18.77;62.57;101078.50;5069186;28;20032;-60
2023/10/07 07:04:22;;;;;;;0.30;0.30;;;;;;;19.84;58.24;101089.13;5067811;28;20028;-59
2023/10/07 07:12:16;;;;;;;0.20;0.20;;;;;;;21.83;49.69;101108.22;5088026;28;20474;-59
2023/10/07 07:14:50;;;;;;;0.30;0.30;;;;;;;22.04;48.70;101112.34;5074393;28;20028;-59
2023/10/07 07:17:29;;;;;;;0.28;0.28;;;;;;;22.31;48.31;101105.16;5068771;28;20047;-60
2023/10/07 07:22:47;;;;;;;0.20;0.20;;;;;;;23.59;45.36;101091.13;5071820;28;20025;-60
2023/10/07 07:25:23;;;;;;;0.20;0.20;;;;;;;24.15;43.97;101087.22;5087933;28;20055;-58
2023/10/07 07:27:49;;;;;;;0.20;0.20;;;;;;;24.31;44.14;101087.84;5088783;28;20111;-59
2023/10/07 07:30:31;;;;;;;0.20;0.20;;;;;;;24.64;43.65;101096.25;5088613;28;20462;-59
2023/10/07 07:33:06;;;;;;;0.20;0.20;;;;;;;24.98;43.02;101095.53;5076548;28;20678;-60
2023/10/07 07:35:39;;;;;;;0.20;0.20;;;;;;;24.87;42.90;101098.19;5070420;28;20029;-59
2023/10/07 07:41:03;;;;;;;0.20;0.20;;;;;;;24.56;43.44;101080.47;5083756;28;20035;-59
2023/10/07 07:43:28;;;;;;;0.20;0.20;;;;;;;24.69;43.47;101094.09;5085254;28;20028;-58
2023/10/07 07:46:11;;;;;;;0.20;0.20;;;;;;;25.23;43.58;101105.44;5068972;28;20028;-59
2023/10/07 07:48:37;;;;;;;0.15;0.15;;;;;;;26.03;41.77;101102.78;5077950;28;20024;-58
2023/10/07 07:51:03;;;;;;;0.17;0.17;;;;;;;26.10;41.25;101114.94;5086446;28;20050;-60
2023/10/07 07:53:31;;;;;;;0.10;0.10;;;;;;;25.87;41.47;101104.94;5082654;28;20032;-59
2023/10/07 07:55:58;;;;;;;0.20;0.20;;;;;;;25.58;41.61;101101.78;5086225;28;20024;-59
2023/10/07 07:58:25;;;;;;;0.10;0.10;;;;;;;24.86;43.68;101081.97;5083017;28;20028;-59
2023/10/07 08:00:58;;;;;;;0.10;0.10;;;;;;;24.82;44.42;101072.28;5068972;28;20495;-59
2023/10/07 08:03:27;;;;;;;0.13;0.13;;;;;;;24.47;44.53;101066.69;5070418;28;20033;-60
2023/10/07 08:05:55;;;;;;;0.17;0.17;;;;;;;23.50;45.90;101066.47;5067389;28;20032;-59
2023/10/07 08:08:27;;;;;;;0.10;0.10;;;;;;;22.39;49.57;101074.88;5067720;28;20058;-59
2023/10/07 08:10:56;;;;;;;0.20;0.20;;;;;;;21.42;51.41;101078.22;5069943;28;20052;-59
2023/10/07 08:13:23;;;;;;;0.13;0.13;;;;;;;21.06;53.29;101072.28;5067563;28;20102;-59
2023/10/07 08:15:52;;;;;;;0.10;0.10;;;;;;;21.68;53.84;101071.25;5067764;28;20028;-59
2023/10/07 08:18:22;;;;;;;0.20;0.20;;;;;;;21.77;51.59;101078.81;5067818;28;20025;-58
2023/10/07 08:20:56;;;;;;;0.20;0.20;;;;;;;21.33;52.98;101080.63;5069757;28;20767;-58
2023/10/07 08:23:28;;;;;;;0.20;0.20;;;;;;;20.82;55.84;101079.13;5067709;28;20604;-60
2023/10/07 08:26:20;;;;;;;0.20;0.20;;;;;;;20.57;57.94;101079.66;5066675;28;20024;-59
2023/10/07 08:28:59;;;;;;;0.10;0.10;;;;;;;20.60;58.08;101084.88;5068855;28;20028;-59
2023/10/07 08:31:43;;;;;;;0.10;0.10;;;;;;;20.63;57.63;101094.63;5070025;28;20639;-59
2023/10/07 08:36:37;;;;;;;0.20;0.20;;;;;;;19.82;58.54;101083.81;5070909;28;20033;-59
2023/10/07 08:39:06;;;;;;;0.10;0.10;;;;;;;19.41;61.90;101077.03;5072198;28;20106;-59
2023/10/07 08:41:32;;;;;;;0.20;0.20;;;;;;;19.08;63.04;101078.72;5070956;28;20035;-59
2023/10/07 08:44:17;;;;;;;0.20;0.20;;;;;;;18.86;64.81;101088.84;5072386;28;20023;-59
2023/10/07 08:46:52;;;;;;;0.15;0.15;;;;;;;18.81;66.05;101080.13;5070262;28;20079;-59
2023/10/07 08:49:26;;;;;;;0.20;0.20;;;;;;;19.38;65.67;101079.88;5070229;28;20024;-59
2023/10/07 08:51:54;;;;;;;0.10;0.10;;;;;;;20.01;63.60;101090.00;5070017;28;20048;-59
2023/10/07 08:54:26;;;;;;;0.20;0.20;;;;;;;19.97;60.81;101083.00;5073803;28;20024;-59
2023/10/07 08:56:57;;;;;;;0.20;0.20;;;;;;;19.97;60.92;101092.91;5089472;28;20059;-59
2023/10/07 08:59:25;;;;;;;0.20;0.20;;;;;;;20.27;60.42;101085.88;5086588;28;20034;-59
2023/10/07 09:02:00;;;;;;;0.10;0.10;;;;;;;21.01;58.25;101095.16;5089971;28;20031;-58
2023/10/07 09:04:36;;;;;;;0.20;0.20;;;;;;;22.10;54.22;101090.25;5078229;28;20139;-58
2023/10/07 09:07:08;;;;;;;0.10;0.10;;;;;;;23.09;51.24;101091.88;5071992;28;20024;-59
2023/10/07 09:09:38;;;;;;;0.10;0.10;;;;;;;23.20;49.10;101088.41;5084647;28;20806;-59
2023/10/07 09:12:29;;;;;;;0.10;0.10;;;;;;;22.93;49.95;101082.13;5072003;28;20045;-59
2023/10/07 09:14:57;;;;;;;0.10;0.10;;;;;;;22.43;50.65;101098.09;5082646;28;20032;-60
2023/10/07 09:17:26;;;;;;;0.10;0.10;;;;;;;22.09;52.22;101100.22;5085285;28;20040;-60
2023/10/07 09:19:53;;;;;;;0.10;0.10;;;;;;;22.05;53.64;101093.25;5082070;28;20038;-61
2023/10/07 09:22:24;;;;;;;0.10;0.10;;;;;;;22.40;51.98;101093.75;5071964;28;20024;-62
2023/10/07 09:24:54;;;;;;;0.10;0.10;;;;;;;22.87;50.75;101093.38;5084531;28;20093;-62
2023/10/07 09:27:36;;;;;;;0.10;0.10;;;;;;;23.64;48.47;101093.56;5079486;28;20387;-62
2023/10/07 09:32:55;;;;;;;0.10;0.10;;;;;;;25.21;45.03;101100.09;5084246;28;20360;-61
2023/10/07 09:35:22;;;;;;;0.10;0.10;;;;;;;25.69;44.12;101109.13;5075774;28;20027;-61
2023/10/07 09:37:53;;;;;;;0.10;0.10;;;;;;;25.84;42.30;101107.94;5075482;28;20651;-60
2023/10/07 09:41:05;;;;;;;0.10;0.10;;;;;;;25.98;42.47;101108.56;5079300;28;20033;-60
2023/10/07 09:43:13;;;;;;;0.10;0.10;;;;;;;26.32;41.96;101103.19;5071227;28;20089;-60
2023/10/07 09:45:38;;;;;;;0.10;0.10;;;;;;;26.70;41.55;101111.91;5070242;28;20032;-60
2023/10/07 09:48:05;;;;;;;0.10;0.10;;;;;;;26.89;41.69;101112.97;5080105;28;20390;-60
2023/10/07 09:50:34;;;;;;;0.10;0.10;;;;;;;27.06;40.36;101117.91;5069990;28;20031;-60
2023/10/07 09:53:16;;;;;;;0.10;0.10;;;;;;;27.11;39.98;101123.00;5085049;28;20504;-60
2023/10/07 09:56:24;;;;;;;0.10;0.10;;;;;;;27.48;40.31;101129.84;5073818;28;20047;-60
2023/10/07 09:59:00;;;;;;;0.03;0.03;;;;;;;27.75;39.40;101116.56;5074722;28;20035;-60
2023/10/07 10:01:58;;;;;;;0.00;0.00;;;;;;;27.84;37.56;101115.75;5071936;28;20028;-60
2023/10/07 10:04:36;;;;;;;0.00;0.00;;;;;;;27.80;37.67;101125.22;5073176;28;20593;-60
2023/10/07 10:07:13;;;;;;;0.00;0.00;;;;;;;28.19;37.71;101115.41;5070931;28;20078;-60
2023/10/07 10:12:29;;;;;;;0.00;0.00;;;;;;;26.49;38.27;101119.06;5079330;28;20168;-61
2023/10/07 10:15:50;;;;;;;0.00;0.00;;;;;;;25.70;39.43;101125.34;5084681;28;20039;-60
2023/10/07 10:17:48;;;;;;;0.10;0.10;;;;;;;25.57;39.98;101121.84;5088108;28;20058;-60
2023/10/07 10:20:18;;;;;;;0.00;0.00;;;;;;;26.18;39.58;101128.00;5074995;28;20024;-60
2023/10/07 10:22:57;;;;;;;0.10;0.10;;;;;;;26.87;37.92;101111.38;5074278;28;20510;-60
2023/10/07 10:25:36;;;;;;;0.00;0.00;;;;;;;26.82;37.83;101109.00;5070068;28;20039;-60
2023/10/07 10:28:03;;;;;;;0.10;0.10;;;;;;;26.42;37.67;101104.19;5076526;28;20060;-61
2023/10/07 10:30:31;;;;;;;0.00;0.00;;;;;;;26.52;39.90;101107.91;5086840;28;20028;-60
2023/10/07 10:33:00;;;;;;;0.03;0.03;;;;;;;26.44;38.68;101107.66;5076359;28;20051;-59
2023/10/07 10:35:27;;;;;;;0.00;0.00;;;;;;;26.37;38.33;101092.78;5076721;28;20136;-59
2023/10/07 10:37:59;;;;;;;0.00;0.00;;;;;;;26.50;38.74;101098.97;5076427;28;20040;-59
2023/10/07 10:40:31;;;;;;;0.00;0.00;;;;;;;26.48;37.55;101096.38;5081685;28;20102;-59
2023/10/07 10:42:57;;;;;;;0.00;0.00;;;;;;;26.34;37.98;101096.63;5070653;28;20103;-59
2023/10/07 10:45:29;;;;;;;0.00;0.00;;;;;;;26.28;38.37;101098.97;5069068;28;20034;-59
2023/10/07 10:47:57;;;;;;;0.00;0.00;;;;;;;26.06;37.87;101099.84;5074316;28;20040;-58
2023/10/07 10:50:24;;;;;;;0.08;0.08;;;;;;;25.81;38.98;101098.09;5077302;28;20684;-59
2023/10/07 10:52:59;;;;;;;0.00;0.00;;;;;;;25.57;38.85;101097.31;5079076;28;20028;-59
2023/10/07 10:55:25;;;;;;;0.10;0.10;;;;;;;25.54;39.52;101094.81;5073764;28;20028;-58
2023/10/07 10:57:52;;;;;;;0.00;0.00;;;;;;;25.64;38.82;101094.97;5072968;28;20642;-59
2023/10/07 11:00:22;;;;;;;0.08;0.08;;;;;;;26.02;38.52;101072.91;5070174;28;20174;-59
2023/10/07 11:02:52;;;;;;;0.10;0.10;;;;;;;26.17;38.36;101077.13;5084021;28;20032;-59
2023/10/07 11:05:21;;;;;;;0.10;0.10;;;;;;;26.30;37.73;101078.75;5086164;28;20047;-59
2023/10/07 11:07:49;;;;;;;0.00;0.00;;;;;;;25.95;38.54;101073.38;5075343;28;20036;-59
2023/10/07 11:10:20;;;;;;;0.00;0.00;;;;;;;25.56;40.08;101071.06;5072053;28;20038;-59
2023/10/07 11:12:52;;;;;;;0.10;0.10;;;;;;;25.10;40.41;101064.66;5057724;28;20040;-59
2023/10/07 11:15:24;;;;;;;0.00;0.00;;;;;;;24.89;41.10;101062.69;5062708;28;20028;-59
2023/10/07 11:18:11;;;;;;;0.10;0.10;;;;;;;24.71;41.11;101059.50;5058115;28;20056;-60
2023/10/07 11:20:39;;;;;;;0.05;0.05;;;;;;;24.65;42.64;101054.44;5065154;28;20036;-59
2023/10/07 11:23:09;;;;;;;0.10;0.10;;;;;;;24.53;42.14;101037.19;5063895;28;20028;-60
2023/10/07 11:25:41;;;;;;;0.10;0.10;;;;;;;24.43;41.55;101032.56;5065382;28;20456;-60
2023/10/07 11:28:09;;;;;;;0.10;0.10;;;;;;;24.39;41.48;101031.03;5063174;28;20108;-59
2023/10/07 11:30:46;;;;;;;0.10;0.10;;;;;;;24.30;43.03;101023.56;5054060;28;20132;-59
2023/10/07 11:33:16;;;;;;;0.03;0.03;;;;;;;24.35;42.35;101029.50;5048954;28;20115;-60
2023/10/07 11:35:42;;;;;;;0.10;0.10;;;;;;;24.57;42.23;101029.66;5032881;28;20178;-59
2023/10/07 11:38:11;;;;;;;0.10;0.10;;;;;;;24.73;42.73;101024.00;5047238;28;20032;-59
2023/10/07 11:40:37;;;;;;;0.00;0.00;;;;;;;24.81;42.55;101027.84;5050164;28;20035;-61
2023/10/07 11:43:08;;;;;;;0.10;0.10;;;;;;;24.86;42.05;101024.81;5055145;28;20016;-61
2023/10/07 11:45:36;;;;;;;0.10;0.10;;;;;;;24.96;43.46;101020.41;5065238;28;20036;-61
2023/10/07 11:48:05;;;;;;;0.10;0.10;;;;;;;25.13;40.49;101018.13;5062204;28;20028;-61
2023/10/07 11:50:38;;;;;;;0.05;0.05;;;;;;;25.17;40.35;101011.44;5062886;28;20101;-61
2023/10/07 11:53:07;;;;;;;0.10;0.10;;;;;;;25.05;41.32;101000.63;5055914;28;20028;-61
2023/10/07 11:55:33;;;;;;;0.10;0.10;;;;;;;24.99;41.80;101009.28;5058363;28;20036;-61
2023/10/07 11:58:02;;;;;;;0.10;0.10;;;;;;;24.73;40.96;101011.22;5050797;28;20062;-61
2023/10/07 12:00:34;;;;;;;0.00;0.00;;;;;;;24.63;41.28;101008.31;5061973;28;20074;-61
2023/10/07 12:03:04;;;;;;;0.10;0.10;;;;;;;24.48;41.11;101003.16;5051438;28;20029;-61
2023/10/07 12:05:31;;;;;;;0.00;0.00;;;;;;;24.48;42.85;100997.72;5055472;28;20553;-61
2023/10/07 12:08:01;;;;;;;0.10;0.10;;;;;;;24.67;42.33;101003.50;5068672;28;20379;-61
2023/10/07 12:10:30;;;;;;;0.10;0.10;;;;;;;24.95;42.92;101002.31;5054757;28;20135;-61
2023/10/07 12:12:58;;;;;;;0.10;0.10;;;;;;;25.00;41.38;100995.53;5072420;28;20029;-61
2023/10/07 12:15:25;;;;;;;0.10;0.10;;;;;;;25.12;41.75;101005.50;5080705;28;20049;-61
2023/10/07 12:17:51;;;;;;;0.00;0.00;;;;;;;25.01;41.50;101005.44;5079392;28;20036;-61
2023/10/07 12:20:19;;;;;;;0.08;0.08;;;;;;;25.00;41.55;101008.28;5070586;28;20044;-61
2023/10/07 12:22:45;;;;;;;0.00;0.00;;;;;;;25.10;41.13;101002.03;5068485;28;20141;-61
2023/10/07 12:25:16;;;;;;;0.03;0.03;;;;;;;25.63;41.74;101001.44;5079126;28;20375;-61
2023/10/07 12:27:47;;;;;;;0.00;0.00;;;;;;;26.30;40.58;100998.75;5066339;28;20647;-60
2023/10/07 12:30:17;;;;;;;0.00;0.00;;;;;;;27.35;37.09;101003.44;5068140;28;20116;-61
2023/10/07 12:32:43;;;;;;;0.00;0.00;;;;;;;28.13;37.10;101001.94;5068903;28;20931;-60